Weather History for Dyersburg, TN

Change the Weather History Date:

Thursday, March 1, 2012

  Actual Average Record
Temperature  
Mean Temperature 55 °F -  
Max Temperature 71 °F 51 °F 77 °F (2006)
Min Temperature 39 °F 36 °F 24 °F (2009)
Degree Days  
Heating Degree Days 10    
Growing Degree Days 5 (Base 50)    
Moisture  
Dew Point 30 °F    
Average Humidity 37    
Maximum Humidity 61    
Minimum Humidity 22    
Precipitation  
Precipitation 0.00 in - - ()
Sea Level Pressure  
Sea Level Pressure 29.88 in    
Wind  
Wind Speed 5 mph (South)    
Max Wind Speed 9 mph    
Max Gust Speed -    
Visibility 10 miles    
Events      
Averages and records for this station are not official NWS values.
T = Trace of Precipitation, MM = Missing Value Source: NWS Daily Summary

Daily Weather History Graph

Daily Weather History Graph

Search for Another Location

Airport:

Trip Planner

Search our weather history database for the weather conditions in past years. The results will help you decide how hot, cold, wet, or windy it might be!

Date:

Astronomy

Mar. 01, 2012 Rise Set
Actual Time 6:27 AM CST 5:53 PM CST
Civil Twilight 6:01 AM CST 6:18 PM CST
Nautical Twilight 5:31 AM CST 6:48 PM CST
Astronomical Twilight 5:02 AM CST 7:18 PM CST
Moon 11:21 AM CST (3/1) 1:17 AM CST (3/1)
Length of Visible Light 12h 17m
Length of Day
11h 25m
First Quarter, 57% of the Moon is Illuminated
Mar 1
First Quarter
Mar 8
Full
Mar 14
Last Quarter
Mar 22
New
Mar 30
First Quarter

Hourly Weather History & Observations

Time (CST) Temp. Windchill Dew Point Humidity Pressure Visibility Wind Dir Wind Speed Gust Speed Precip Events Conditions
12:35 AM 55.4 °F - 26.6 °F 33% 29.94 in 10.0 mi WNW 4.6 mph - N/A   Clear
12:55 AM 55.4 °F - 26.6 °F 33% 29.94 in 10.0 mi NW 9.2 mph - N/A   Clear
1:15 AM 55.4 °F - 26.6 °F 33% 29.95 in 10.0 mi NW 4.6 mph - N/A   Clear
1:35 AM 53.6 °F - 24.8 °F 33% 29.95 in 10.0 mi SW 3.5 mph - N/A   Clear
2:15 AM 53.6 °F - 24.8 °F 33% 29.95 in 10.0 mi West 3.5 mph - N/A   Clear
2:35 AM 50.0 °F - 26.6 °F 40% 29.95 in 10.0 mi Calm Calm - N/A   Clear
2:55 AM 46.4 °F 45.2 °F 26.6 °F 46% 29.95 in 10.0 mi SW 3.5 mph - N/A   Clear
3:15 AM 44.6 °F 43.1 °F 26.6 °F 49% 29.95 in 10.0 mi WSW 3.5 mph - N/A   Clear
3:35 AM 46.4 °F - 26.6 °F 46% 29.95 in 10.0 mi Calm Calm - N/A   Clear
3:55 AM 42.8 °F 41.1 °F 26.6 °F 53% 29.95 in 10.0 mi WSW 3.5 mph - N/A   Clear
4:15 AM 44.6 °F 43.1 °F 26.6 °F 49% 29.96 in 10.0 mi West 3.5 mph - N/A   Clear
4:35 AM 44.6 °F 43.1 °F 26.6 °F 49% 29.96 in 10.0 mi WSW 3.5 mph - N/A   Clear
4:55 AM 44.6 °F 43.1 °F 26.6 °F 49% 29.96 in 10.0 mi West 3.5 mph - N/A   Clear
5:15 AM 42.8 °F - 26.6 °F 53% 29.96 in 10.0 mi Calm Calm - N/A   Clear
5:35 AM 42.8 °F - 26.6 °F 53% 29.96 in 10.0 mi Calm Calm - N/A   Clear
5:55 AM 42.8 °F - 26.6 °F 53% 29.96 in 10.0 mi Calm Calm - N/A   Clear
6:15 AM 39.2 °F 37.0 °F 26.6 °F 61% 29.96 in 10.0 mi SSW 3.5 mph - N/A   Clear
6:35 AM 39.2 °F 37.0 °F 26.6 °F 61% 29.96 in 10.0 mi South 3.5 mph - N/A   Clear
6:55 AM 41.0 °F 38.0 °F 26.6 °F 57% 29.96 in 10.0 mi South 4.6 mph - N/A   Clear
7:15 AM 41.0 °F 39.0 °F 28.4 °F 61% 29.96 in 10.0 mi South 3.5 mph - N/A   Clear
7:35 AM 46.4 °F 45.2 °F 32.0 °F 57% 29.97 in 10.0 mi SSE 3.5 mph - N/A   Clear
7:55 AM 51.8 °F - 32.0 °F 47% 29.98 in 10.0 mi Calm Calm - N/A   Clear
8:15 AM 53.6 °F - 32.0 °F 44% 29.98 in 10.0 mi Calm Calm - N/A   Clear
8:35 AM 55.4 °F - 30.2 °F 38% 29.98 in 10.0 mi Calm Calm - N/A   Clear
8:55 AM 57.2 °F - 32.0 °F 38% 29.99 in 10.0 mi Calm Calm - N/A   Clear
9:15 AM 59.0 °F - 30.2 °F 34% 29.98 in 10.0 mi SSW 3.5 mph - N/A   Clear
10:15 AM 62.6 °F - 30.2 °F 30% 29.98 in 10.0 mi SSE 5.8 mph - N/A   Clear
10:35 AM 62.6 °F - 30.2 °F 30% 29.97 in 10.0 mi SSE 5.8 mph - N/A   Clear
10:55 AM 62.6 °F - 28.4 °F 27% 29.96 in 10.0 mi SSE 3.5 mph - N/A   Clear
11:15 AM 64.4 °F - 30.2 °F 28% 29.95 in 10.0 mi SSE 6.9 mph - N/A   Clear
12:15 PM 66.2 °F - 30.2 °F 26% 29.91 in 10.0 mi SSE 4.6 mph - N/A   Clear
12:35 PM 66.2 °F - 30.2 °F 26% 29.90 in 10.0 mi SE 3.5 mph - N/A   Clear
12:55 PM 68.0 °F - 32.0 °F 26% 29.89 in 10.0 mi South 3.5 mph - N/A   Clear
1:15 PM 68.0 °F - 30.2 °F 24% 29.87 in 10.0 mi SE 9.2 mph - N/A   Clear
1:35 PM 69.8 °F - 32.0 °F 25% 29.86 in 10.0 mi SE 8.1 mph - N/A   Clear
1:55 PM 69.8 °F - 30.2 °F 23% 29.85 in 10.0 mi SE 6.9 mph - N/A   Clear
2:15 PM 71.6 °F - 30.2 °F 22% 29.85 in 10.0 mi South 9.2 mph - N/A   Clear
2:35 PM 71.6 °F - 32.0 °F 23% 29.84 in 10.0 mi South 6.9 mph - N/A   Clear
2:55 PM 71.6 °F - 30.2 °F 22% 29.83 in 10.0 mi SSE 5.8 mph - N/A   Clear
3:15 PM 71.6 °F - 30.2 °F 22% 29.83 in 10.0 mi SSW 5.8 mph - N/A   Clear
3:35 PM 71.6 °F - 32.0 °F 23% 29.81 in 10.0 mi SSE 8.1 mph - N/A   Clear
3:55 PM 69.8 °F - 30.2 °F 23% 29.80 in 10.0 mi South 9.2 mph - N/A   Clear
4:15 PM 71.6 °F - 30.2 °F 22% 29.80 in 10.0 mi SSE 8.1 mph - N/A   Clear
4:55 PM 69.8 °F - 30.2 °F 23% 29.78 in 10.0 mi SSE 8.1 mph - N/A   Clear
5:35 PM 64.4 °F - 33.8 °F 32% 29.76 in 10.0 mi SE 4.6 mph - N/A   Clear
5:55 PM 64.4 °F - 32.0 °F 30% 29.76 in 10.0 mi SE 6.9 mph - N/A   Clear
6:15 PM 62.6 °F - 32.0 °F 32% 29.75 in 10.0 mi SE 8.1 mph - N/A   Clear
6:35 PM 62.6 °F - 32.0 °F 32% 29.74 in 10.0 mi SE 8.1 mph - N/A   Clear
6:55 PM 62.6 °F - 32.0 °F 32% 29.74 in 10.0 mi SE 8.1 mph - N/A   Clear
7:15 PM 60.8 °F - 32.0 °F 34% 29.73 in 10.0 mi SE 8.1 mph - N/A   Clear
7:35 PM 62.6 °F - 32.0 °F 32% 29.73 in 10.0 mi SE 6.9 mph - N/A   Clear
7:55 PM 62.6 °F - 33.8 °F 34% 29.73 in 10.0 mi SSE 6.9 mph - N/A   Clear
8:15 PM 60.8 °F - 33.8 °F 36% 29.73 in 10.0 mi South 4.6 mph - N/A   Clear
8:35 PM 62.6 °F - 33.8 °F 34% 29.73 in 10.0 mi SSE 8.1 mph - N/A   Clear
8:55 PM 62.6 °F - 33.8 °F 34% 29.73 in 10.0 mi SSE 8.1 mph - N/A   Clear
9:15 PM 62.6 °F - 35.6 °F 37% 29.72 in 10.0 mi SSE 9.2 mph - N/A   Clear
9:35 PM 62.6 °F - 37.4 °F 39% 29.72 in 10.0 mi South 8.1 mph - N/A   Clear
9:55 PM 62.6 °F - 37.4 °F 39% 29.71 in 10.0 mi SSE 11.5 mph 17.3 mph N/A   Clear
10:15 PM 62.6 °F - 39.2 °F 42% 29.71 in 10.0 mi SSE 6.9 mph - N/A   Clear
10:35 PM 62.6 °F - 39.2 °F 42% 29.71 in 10.0 mi SSE 8.1 mph - N/A   Clear
10:55 PM 62.6 °F - 39.2 °F 42% 29.70 in 10.0 mi SSE 8.1 mph - N/A   Scattered Clouds
11:15 PM 62.6 °F - 41.0 °F 45% 29.70 in 10.0 mi SSE 8.1 mph - N/A   Mostly Cloudy
11:55 PM 62.6 °F - 42.8 °F 48% 29.69 in 10.0 mi SE 8.1 mph - N/A   Mostly Cloudy